CheckWX is a tool to help pilots better visualize weather data.  It is not intended as a substitute for an official pre-flight weather briefing.

05:38:22 UTC

GVBA METAR
Rabil Airport
Rabil, Cape Verde
Current

11 hours ago

GVBA 231900Z 03013KT CAVOK 24/17 Q1015 NOSIG
Observed
Feb-23 @ 19:00 UTC
Wind
  • 030° at 13 KTS
Visibility
10,000+ meters
Flight Rules
VFR
Cloud Levels
  • Clear skies
Temperature
24°C / 75°F
Dewpoint
17°C / 63°F
Humidity
65%
Altimeter
29.97" Hg
Pressure
1014.92 hPa
Previous

12 hours ago

GVBA 231800Z 04015KT CAVOK 25/16 Q1014 NOSIG
Observed
Feb-23 @ 18:00 UTC
Wind
  • 040° at 15 KTS
Visibility
10,000+ meters
Flight Rules
VFR
Cloud Levels
  • Clear skies
Temperature
25°C / 77°F
Dewpoint
16°C / 61°F
Humidity
57%
Altimeter
29.94" Hg
Pressure
1013.92 hPa
Previous

13 hours ago

GVBA 231700Z 03017KT 9999 FEW015 26/16 Q1014 NOSIG
Observed
Feb-23 @ 17:00 UTC
Wind
  • 030° at 17 KTS
Visibility
10,000+ meters
Flight Rules
VFR
Cloud Levels
  • Few at 1,500' AGL
Temperature
26°C / 79°F
Dewpoint
16°C / 61°F
Humidity
54%
Altimeter
29.94" Hg
Pressure
1013.92 hPa